sensor_id;sensor_type;location;lat;lon;timestamp;P1;durP1;ratioP1;P2;durP2;ratioP2
14066;SDS011;7108;42.684;23.350;2023-04-09T00:00:37;216.67;;;74.70;;
14066;SDS011;7108;42.684;23.350;2023-04-09T00:03:03;224.20;;;75.73;;
14066;SDS011;7108;42.684;23.350;2023-04-09T00:05:28;220.40;;;75.60;;
14066;SDS011;7108;42.684;23.350;2023-04-09T00:07:54;240.57;;;80.33;;
14066;SDS011;7108;42.684;23.350;2023-04-09T00:10:20;254.00;;;77.40;;
14066;SDS011;7108;42.684;23.350;2023-04-09T00:12:45;236.43;;;77.77;;
14066;SDS011;7108;42.684;23.350;2023-04-09T00:15:11;249.00;;;78.53;;
14066;SDS011;7108;42.684;23.350;2023-04-09T00:17:36;225.20;;;73.77;;
14066;SDS011;7108;42.684;23.350;2023-04-09T00:20:02;220.60;;;73.17;;
14066;SDS011;7108;42.684;23.350;2023-04-09T00:22:28;210.37;;;72.57;;
14066;SDS011;7108;42.684;23.350;2023-04-09T00:24:53;243.87;;;79.33;;
14066;SDS011;7108;42.684;23.350;2023-04-09T00:27:19;247.43;;;78.60;;
14066;SDS011;7108;42.684;23.350;2023-04-09T00:29:45;245.87;;;79.80;;
14066;SDS011;7108;42.684;23.350;2023-04-09T00:32:11;242.70;;;75.35;;
14066;SDS011;7108;42.684;23.350;2023-04-09T00:34:37;212.77;;;74.07;;
14066;SDS011;7108;42.684;23.350;2023-04-09T00:37:02;223.97;;;74.97;;
14066;SDS011;7108;42.684;23.350;2023-04-09T00:39:28;214.80;;;74.43;;
14066;SDS011;7108;42.684;23.350;2023-04-09T00:41:54;238.03;;;77.23;;
14066;SDS011;7108;42.684;23.350;2023-04-09T00:44:21;245.40;;;78.05;;
14066;SDS011;7108;42.684;23.350;2023-04-09T00:46:47;226.83;;;74.37;;
14066;SDS011;7108;42.684;23.350;2023-04-09T00:49:12;238.10;;;73.70;;
14066;SDS011;7108;42.684;23.350;2023-04-09T00:51:38;226.33;;;75.40;;
14066;SDS011;7108;42.684;23.350;2023-04-09T00:54:04;211.77;;;71.63;;
14066;SDS011;7108;42.684;23.350;2023-04-09T00:56:30;217.97;;;73.93;;
14066;SDS011;7108;42.684;23.350;2023-04-09T00:58:55;239.17;;;75.73;;
14066;SDS011;7108;42.684;23.350;2023-04-09T01:01:21;243.83;;;76.20;;
14066;SDS011;7108;42.684;23.350;2023-04-09T01:03:46;215.37;;;72.17;;
14066;SDS011;7108;42.684;23.350;2023-04-09T01:11:39;223.10;;;73.07;;
14066;SDS011;7108;42.684;23.350;2023-04-09T01:14:26;248.38;;;76.15;;
14066;SDS011;7108;42.684;23.350;2023-04-09T01:17:05;218.13;;;72.93;;
14066;SDS011;7108;42.684;23.350;2023-04-09T01:25:26;248.82;;;76.32;;
14066;SDS011;7108;42.684;23.350;2023-04-09T01:30:32;212.63;;;73.33;;
14066;SDS011;7108;42.684;23.350;2023-04-09T01:32:58;210.65;;;71.03;;
14066;SDS011;7108;42.684;23.350;2023-04-09T01:35:25;239.23;;;75.47;;
14066;SDS011;7108;42.684;23.350;2023-04-09T01:37:52;217.50;;;72.60;;
14066;SDS011;7108;42.684;23.350;2023-04-09T01:40:18;244.98;;;76.85;;
14066;SDS011;7108;42.684;23.350;2023-04-09T01:42:44;239.73;;;77.30;;
14066;SDS011;7108;42.684;23.350;2023-04-09T01:45:11;248.70;;;76.53;;
14066;SDS011;7108;42.684;23.350;2023-04-09T01:47:40;239.90;;;79.28;;
14066;SDS011;7108;42.684;23.350;2023-04-09T01:50:05;209.23;;;72.33;;
14066;SDS011;7108;42.684;23.350;2023-04-09T01:52:32;209.18;;;73.18;;
14066;SDS011;7108;42.684;23.350;2023-04-09T01:54:57;215.30;;;73.60;;
14066;SDS011;7108;42.684;23.350;2023-04-09T01:57:23;242.93;;;76.60;;
14066;SDS011;7108;42.684;23.350;2023-04-09T01:59:48;245.13;;;76.97;;
14066;SDS011;7108;42.684;23.350;2023-04-09T02:02:23;259.53;;;80.87;;
14066;SDS011;7108;42.684;23.350;2023-04-09T02:04:58;214.45;;;73.57;;
14066;SDS011;7108;42.684;23.350;2023-04-09T02:07:46;219.10;;;74.53;;
14066;SDS011;7108;42.684;23.350;2023-04-09T02:10:18;246.65;;;76.45;;
14066;SDS011;7108;42.684;23.350;2023-04-09T02:12:47;237.93;;;76.65;;
14066;SDS011;7108;42.684;23.350;2023-04-09T02:15:15;240.02;;;75.93;;
14066;SDS011;7108;42.684;23.350;2023-04-09T02:17:40;235.73;;;75.50;;
14066;SDS011;7108;42.684;23.350;2023-04-09T02:20:06;228.70;;;74.03;;
14066;SDS011;7108;42.684;23.350;2023-04-09T02:22:32;206.20;;;71.97;;
14066;SDS011;7108;42.684;23.350;2023-04-09T02:24:57;215.90;;;72.90;;
14066;SDS011;7108;42.684;23.350;2023-04-09T02:27:23;238.57;;;75.83;;
14066;SDS011;7108;42.684;23.350;2023-04-09T02:29:48;246.77;;;80.47;;
14066;SDS011;7108;42.684;23.350;2023-04-09T02:32:14;238.95;;;75.65;;
14066;SDS011;7108;42.684;23.350;2023-04-09T02:34:40;227.37;;;76.20;;
14066;SDS011;7108;42.684;23.350;2023-04-09T02:37:06;216.23;;;73.82;;
14066;SDS011;7108;42.684;23.350;2023-04-09T02:39:31;211.43;;;74.83;;
14066;SDS011;7108;42.684;23.350;2023-04-09T02:41:57;204.77;;;72.10;;
14066;SDS011;7108;42.684;23.350;2023-04-09T02:44:22;241.60;;;78.67;;
14066;SDS011;7108;42.684;23.350;2023-04-09T02:46:48;227.27;;;75.17;;
14066;SDS011;7108;42.684;23.350;2023-04-09T02:49:15;225.13;;;75.23;;
14066;SDS011;7108;42.684;23.350;2023-04-09T02:51:40;227.93;;;76.03;;
14066;SDS011;7108;42.684;23.350;2023-04-09T02:54:06;212.67;;;74.40;;
14066;SDS011;7108;42.684;23.350;2023-04-09T02:56:31;209.00;;;73.93;;
14066;SDS011;7108;42.684;23.350;2023-04-09T02:58:57;219.63;;;76.37;;
14066;SDS011;7108;42.684;23.350;2023-04-09T03:01:22;256.57;;;80.93;;
14066;SDS011;7108;42.684;23.350;2023-04-09T03:03:48;239.87;;;77.10;;
14066;SDS011;7108;42.684;23.350;2023-04-09T03:06:13;246.80;;;79.23;;
14066;SDS011;7108;42.684;23.350;2023-04-09T03:08:38;219.27;;;76.07;;
14066;SDS011;7108;42.684;23.350;2023-04-09T03:11:04;212.17;;;73.60;;
14066;SDS011;7108;42.684;23.350;2023-04-09T03:13:29;208.90;;;75.03;;
14066;SDS011;7108;42.684;23.350;2023-04-09T03:15:55;239.87;;;76.97;;
14066;SDS011;7108;42.684;23.350;2023-04-09T03:18:20;254.07;;;78.83;;
14066;SDS011;7108;42.684;23.350;2023-04-09T03:20:46;236.50;;;77.17;;
14066;SDS011;7108;42.684;23.350;2023-04-09T03:23:11;251.10;;;78.43;;
14066;SDS011;7108;42.684;23.350;2023-04-09T03:25:37;215.97;;;76.67;;
14066;SDS011;7108;42.684;23.350;2023-04-09T03:28:02;214.77;;;74.77;;
14066;SDS011;7108;42.684;23.350;2023-04-09T03:30:28;216.23;;;74.40;;
14066;SDS011;7108;42.684;23.350;2023-04-09T03:32:54;232.93;;;77.57;;
14066;SDS011;7108;42.684;23.350;2023-04-09T03:35:19;221.83;;;76.30;;
14066;SDS011;7108;42.684;23.350;2023-04-09T03:37:45;233.57;;;76.60;;
14066;SDS011;7108;42.684;23.350;2023-04-09T03:40:11;250.77;;;79.87;;
14066;SDS011;7108;42.684;23.350;2023-04-09T03:42:37;216.88;;;76.60;;
14066;SDS011;7108;42.684;23.350;2023-04-09T03:45:03;215.60;;;75.80;;
14066;SDS011;7108;42.684;23.350;2023-04-09T03:47:29;217.02;;;76.15;;
14066;SDS011;7108;42.684;23.350;2023-04-09T03:49:54;243.03;;;80.97;;
14066;SDS011;7108;42.684;23.350;2023-04-09T03:52:20;227.50;;;77.10;;
14066;SDS011;7108;42.684;23.350;2023-04-09T03:54:45;238.80;;;78.00;;
14066;SDS011;7108;42.684;23.350;2023-04-09T03:57:11;239.93;;;76.87;;
14066;SDS011;7108;42.684;23.350;2023-04-09T03:59:36;216.77;;;74.60;;
14066;SDS011;7108;42.684;23.350;2023-04-09T04:02:01;204.10;;;69.50;;
14066;SDS011;7108;42.684;23.350;2023-04-09T04:04:27;239.20;;;78.27;;
14066;SDS011;7108;42.684;23.350;2023-04-09T04:06:52;210.63;;;74.17;;
14066;SDS011;7108;42.684;23.350;2023-04-09T04:09:18;260.60;;;79.77;;
14066;SDS011;7108;42.684;23.350;2023-04-09T04:11:43;239.07;;;80.03;;
14066;SDS011;7108;42.684;23.350;2023-04-09T04:14:09;226.30;;;75.40;;
14066;SDS011;7108;42.684;23.350;2023-04-09T04:16:34;223.63;;;80.13;;
14066;SDS011;7108;42.684;23.350;2023-04-09T04:18:59;224.87;;;77.03;;
14066;SDS011;7108;42.684;23.350;2023-04-09T04:21:25;244.07;;;79.00;;
14066;SDS011;7108;42.684;23.350;2023-04-09T04:23:51;254.73;;;83.07;;
14066;SDS011;7108;42.684;23.350;2023-04-09T04:26:16;267.93;;;82.20;;
14066;SDS011;7108;42.684;23.350;2023-04-09T04:28:43;241.97;;;79.17;;
14066;SDS011;7108;42.684;23.350;2023-04-09T04:31:09;221.45;;;77.00;;
14066;SDS011;7108;42.684;23.350;2023-04-09T04:33:35;228.40;;;80.45;;
14066;SDS011;7108;42.684;23.350;2023-04-09T04:36:03;230.35;;;79.50;;
14066;SDS011;7108;42.684;23.350;2023-04-09T04:38:30;217.02;;;77.13;;
14066;SDS011;7108;42.684;23.350;2023-04-09T04:40:56;240.57;;;79.20;;
14066;SDS011;7108;42.684;23.350;2023-04-09T04:43:21;268.23;;;84.03;;
14066;SDS011;7108;42.684;23.350;2023-04-09T04:45:47;252.10;;;83.03;;
14066;SDS011;7108;42.684;23.350;2023-04-09T04:48:12;252.50;;;80.33;;
14066;SDS011;7108;42.684;23.350;2023-04-09T04:50:38;233.90;;;78.73;;
14066;SDS011;7108;42.684;23.350;2023-04-09T04:53:03;233.23;;;79.73;;
14066;SDS011;7108;42.684;23.350;2023-04-09T04:55:29;237.97;;;82.00;;
14066;SDS011;7108;42.684;23.350;2023-04-09T04:57:54;250.73;;;79.93;;
14066;SDS011;7108;42.684;23.350;2023-04-09T05:00:20;258.10;;;83.33;;
14066;SDS011;7108;42.684;23.350;2023-04-09T05:02:45;259.93;;;82.60;;
14066;SDS011;7108;42.684;23.350;2023-04-09T05:05:10;253.47;;;83.23;;
14066;SDS011;7108;42.684;23.350;2023-04-09T05:07:36;234.63;;;81.97;;
14066;SDS011;7108;42.684;23.350;2023-04-09T05:10:01;221.33;;;76.73;;
14066;SDS011;7108;42.684;23.350;2023-04-09T05:12:29;225.03;;;76.37;;
14066;SDS011;7108;42.684;23.350;2023-04-09T05:14:56;257.23;;;81.15;;
14066;SDS011;7108;42.684;23.350;2023-04-09T05:17:21;266.93;;;83.10;;
14066;SDS011;7108;42.684;23.350;2023-04-09T05:19:52;255.77;;;81.88;;
14066;SDS011;7108;42.684;23.350;2023-04-09T05:22:18;292.20;;;86.28;;
14066;SDS011;7108;42.684;23.350;2023-04-09T05:24:44;272.50;;;81.63;;
14066;SDS011;7108;42.684;23.350;2023-04-09T05:27:09;261.30;;;84.67;;
14066;SDS011;7108;42.684;23.350;2023-04-09T05:29:34;275.20;;;83.90;;
14066;SDS011;7108;42.684;23.350;2023-04-09T05:32:00;265.93;;;84.33;;
14066;SDS011;7108;42.684;23.350;2023-04-09T05:34:25;277.50;;;81.97;;
14066;SDS011;7108;42.684;23.350;2023-04-09T05:36:51;276.00;;;86.70;;
14066;SDS011;7108;42.684;23.350;2023-04-09T05:39:17;272.33;;;83.32;;
14066;SDS011;7108;42.684;23.350;2023-04-09T05:41:42;262.00;;;81.63;;
14066;SDS011;7108;42.684;23.350;2023-04-09T05:44:09;242.80;;;78.93;;
14066;SDS011;7108;42.684;23.350;2023-04-09T05:46:35;235.57;;;77.70;;
14066;SDS011;7108;42.684;23.350;2023-04-09T05:49:01;236.47;;;79.00;;
14066;SDS011;7108;42.684;23.350;2023-04-09T05:51:26;271.13;;;83.03;;
14066;SDS011;7108;42.684;23.350;2023-04-09T05:53:51;290.03;;;87.60;;
14066;SDS011;7108;42.684;23.350;2023-04-09T05:56:17;296.07;;;85.57;;
14066;SDS011;7108;42.684;23.350;2023-04-09T05:58:43;291.83;;;84.28;;
14066;SDS011;7108;42.684;23.350;2023-04-09T06:01:08;258.40;;;81.67;;
14066;SDS011;7108;42.684;23.350;2023-04-09T06:03:34;239.00;;;78.83;;
14066;SDS011;7108;42.684;23.350;2023-04-09T06:06:00;274.03;;;84.30;;
14066;SDS011;7108;42.684;23.350;2023-04-09T06:08:25;294.50;;;83.67;;
14066;SDS011;7108;42.684;23.350;2023-04-09T06:10:51;272.23;;;82.40;;
14066;SDS011;7108;42.684;23.350;2023-04-09T06:13:16;270.90;;;81.20;;
14066;SDS011;7108;42.684;23.350;2023-04-09T06:15:41;272.77;;;82.00;;
14066;SDS011;7108;42.684;23.350;2023-04-09T06:18:07;271.67;;;83.63;;
14066;SDS011;7108;42.684;23.350;2023-04-09T06:20:32;253.10;;;79.63;;
14066;SDS011;7108;42.684;23.350;2023-04-09T06:22:58;256.50;;;80.37;;
14066;SDS011;7108;42.684;23.350;2023-04-09T06:25:23;296.27;;;86.90;;
14066;SDS011;7108;42.684;23.350;2023-04-09T06:27:48;265.60;;;82.80;;
14066;SDS011;7108;42.684;23.350;2023-04-09T06:30:14;291.00;;;88.23;;
14066;SDS011;7108;42.684;23.350;2023-04-09T06:32:39;244.00;;;79.50;;
14066;SDS011;7108;42.684;23.350;2023-04-09T06:35:05;251.90;;;79.87;;
14066;SDS011;7108;42.684;23.350;2023-04-09T06:37:32;257.30;;;81.30;;
14066;SDS011;7108;42.684;23.350;2023-04-09T06:39:58;261.17;;;83.97;;
14066;SDS011;7108;42.684;23.350;2023-04-09T06:42:23;275.43;;;84.17;;
14066;SDS011;7108;42.684;23.350;2023-04-09T06:44:50;263.53;;;83.90;;
14066;SDS011;7108;42.684;23.350;2023-04-09T06:47:16;280.70;;;84.50;;
14066;SDS011;7108;42.684;23.350;2023-04-09T06:49:41;275.80;;;86.00;;
14066;SDS011;7108;42.684;23.350;2023-04-09T06:52:06;236.27;;;76.97;;
14066;SDS011;7108;42.684;23.350;2023-04-09T06:54:32;256.53;;;80.07;;
14066;SDS011;7108;42.684;23.350;2023-04-09T06:56:57;245.77;;;81.23;;
14066;SDS011;7108;42.684;23.350;2023-04-09T06:59:23;291.47;;;84.37;;
14066;SDS011;7108;42.684;23.350;2023-04-09T07:01:48;263.03;;;82.73;;
14066;SDS011;7108;42.684;23.350;2023-04-09T07:04:13;271.10;;;81.10;;
14066;SDS011;7108;42.684;23.350;2023-04-09T07:06:39;254.97;;;80.53;;
14066;SDS011;7108;42.684;23.350;2023-04-09T07:09:04;256.53;;;80.93;;
14066;SDS011;7108;42.684;23.350;2023-04-09T07:11:30;267.13;;;82.00;;
14066;SDS011;7108;42.684;23.350;2023-04-09T07:13:57;258.37;;;81.80;;
14066;SDS011;7108;42.684;23.350;2023-04-09T07:16:22;296.50;;;86.47;;
14066;SDS011;7108;42.684;23.350;2023-04-09T07:18:48;301.67;;;88.00;;
14066;SDS011;7108;42.684;23.350;2023-04-09T07:21:13;299.70;;;86.83;;
14066;SDS011;7108;42.684;23.350;2023-04-09T07:23:39;271.20;;;82.63;;
14066;SDS011;7108;42.684;23.350;2023-04-09T07:26:05;275.93;;;82.37;;
14066;SDS011;7108;42.684;23.350;2023-04-09T07:28:30;282.20;;;85.50;;
14066;SDS011;7108;42.684;23.350;2023-04-09T07:30:56;289.77;;;84.60;;
14066;SDS011;7108;42.684;23.350;2023-04-09T07:33:24;280.90;;;84.10;;
14066;SDS011;7108;42.684;23.350;2023-04-09T07:35:49;283.40;;;83.27;;
14066;SDS011;7108;42.684;23.350;2023-04-09T07:38:15;262.80;;;83.00;;
14066;SDS011;7108;42.684;23.350;2023-04-09T07:40:40;251.17;;;80.37;;
14066;SDS011;7108;42.684;23.350;2023-04-09T07:43:06;226.47;;;78.03;;
14066;SDS011;7108;42.684;23.350;2023-04-09T07:45:31;234.77;;;78.20;;
14066;SDS011;7108;42.684;23.350;2023-04-09T07:47:57;239.10;;;79.27;;
14066;SDS011;7108;42.684;23.350;2023-04-09T07:50:22;264.00;;;82.87;;
14066;SDS011;7108;42.684;23.350;2023-04-09T07:52:48;260.17;;;85.23;;
14066;SDS011;7108;42.684;23.350;2023-04-09T07:55:13;248.50;;;78.70;;
14066;SDS011;7108;42.684;23.350;2023-04-09T07:57:38;237.83;;;79.33;;
14066;SDS011;7108;42.684;23.350;2023-04-09T08:00:04;255.87;;;82.00;;
14066;SDS011;7108;42.684;23.350;2023-04-09T08:02:30;229.07;;;74.70;;
14066;SDS011;7108;42.684;23.350;2023-04-09T08:04:56;244.23;;;80.63;;
14066;SDS011;7108;42.684;23.350;2023-04-09T08:07:21;264.27;;;79.93;;
14066;SDS011;7108;42.684;23.350;2023-04-09T08:09:47;248.27;;;79.73;;
14066;SDS011;7108;42.684;23.350;2023-04-09T08:12:12;246.70;;;78.17;;
14066;SDS011;7108;42.684;23.350;2023-04-09T08:14:38;243.73;;;79.77;;
14066;SDS011;7108;42.684;23.350;2023-04-09T08:17:03;243.07;;;81.37;;
14066;SDS011;7108;42.684;23.350;2023-04-09T08:19:29;240.43;;;78.50;;
14066;SDS011;7108;42.684;23.350;2023-04-09T08:21:54;262.80;;;84.10;;
14066;SDS011;7108;42.684;23.350;2023-04-09T08:24:20;257.00;;;81.47;;
14066;SDS011;7108;42.684;23.350;2023-04-09T08:26:46;241.47;;;79.43;;
14066;SDS011;7108;42.684;23.350;2023-04-09T08:29:11;258.00;;;83.03;;
14066;SDS011;7108;42.684;23.350;2023-04-09T08:31:37;251.27;;;80.23;;
14066;SDS011;7108;42.684;23.350;2023-04-09T08:34:03;251.73;;;80.73;;
14066;SDS011;7108;42.684;23.350;2023-04-09T08:36:29;239.47;;;76.17;;
14066;SDS011;7108;42.684;23.350;2023-04-09T08:38:56;260.07;;;80.37;;
14066;SDS011;7108;42.684;23.350;2023-04-09T08:41:24;262.17;;;80.20;;
14066;SDS011;7108;42.684;23.350;2023-04-09T08:43:54;279.37;;;83.70;;
14066;SDS011;7108;42.684;23.350;2023-04-09T08:46:20;263.43;;;86.17;;
14066;SDS011;7108;42.684;23.350;2023-04-09T08:48:47;253.93;;;79.27;;
14066;SDS011;7108;42.684;23.350;2023-04-09T08:51:14;253.57;;;82.70;;
14066;SDS011;7108;42.684;23.350;2023-04-09T08:53:43;285.37;;;85.30;;
14066;SDS011;7108;42.684;23.350;2023-04-09T08:56:11;271.60;;;83.07;;
14066;SDS011;7108;42.684;23.350;2023-04-09T08:58:39;274.73;;;82.93;;
14066;SDS011;7108;42.684;23.350;2023-04-09T09:01:23;293.83;;;87.20;;
14066;SDS011;7108;42.684;23.350;2023-04-09T09:06:19;293.00;;;86.37;;
14066;SDS011;7108;42.684;23.350;2023-04-09T09:08:49;314.93;;;90.10;;
14066;SDS011;7108;42.684;23.350;2023-04-09T09:11:24;282.63;;;84.57;;
14066;SDS011;7108;42.684;23.350;2023-04-09T09:13:56;313.90;;;92.10;;
14066;SDS011;7108;42.684;23.350;2023-04-09T09:16:23;312.07;;;89.17;;
14066;SDS011;7108;42.684;23.350;2023-04-09T09:18:48;297.63;;;86.17;;
14066;SDS011;7108;42.684;23.350;2023-04-09T09:21:14;302.63;;;90.90;;
14066;SDS011;7108;42.684;23.350;2023-04-09T09:23:41;288.47;;;99.37;;
14066;SDS011;7108;42.684;23.350;2023-04-09T09:26:14;304.73;;;107.27;;
14066;SDS011;7108;42.684;23.350;2023-04-09T09:28:42;262.40;;;88.37;;
14066;SDS011;7108;42.684;23.350;2023-04-09T09:31:09;257.73;;;84.80;;
14066;SDS011;7108;42.684;23.350;2023-04-09T09:33:36;254.83;;;80.93;;
14066;SDS011;7108;42.684;23.350;2023-04-09T09:36:02;247.37;;;80.90;;
14066;SDS011;7108;42.684;23.350;2023-04-09T09:38:28;245.10;;;80.10;;
14066;SDS011;7108;42.684;23.350;2023-04-09T09:40:54;295.80;;;89.23;;
14066;SDS011;7108;42.684;23.350;2023-04-09T09:43:20;264.83;;;87.77;;
14066;SDS011;7108;42.684;23.350;2023-04-09T09:45:46;260.60;;;86.13;;
14066;SDS011;7108;42.684;23.350;2023-04-09T09:48:12;265.63;;;91.93;;
14066;SDS011;7108;42.684;23.350;2023-04-09T09:50:39;248.77;;;84.60;;
14066;SDS011;7108;42.684;23.350;2023-04-09T09:53:06;271.07;;;89.37;;
14066;SDS011;7108;42.684;23.350;2023-04-09T09:55:39;254.47;;;87.27;;
14066;SDS011;7108;42.684;23.350;2023-04-09T09:58:11;241.87;;;86.37;;
14066;SDS011;7108;42.684;23.350;2023-04-09T10:00:52;271.17;;;94.43;;
14066;SDS011;7108;42.684;23.350;2023-04-09T10:03:24;268.27;;;93.77;;
14066;SDS011;7108;42.684;23.350;2023-04-09T10:05:53;280.93;;;94.93;;
14066;SDS011;7108;42.684;23.350;2023-04-09T10:08:20;264.90;;;91.07;;
14066;SDS011;7108;42.684;23.350;2023-04-09T10:10:47;253.77;;;89.70;;
14066;SDS011;7108;42.684;23.350;2023-04-09T10:13:23;271.13;;;93.07;;
14066;SDS011;7108;42.684;23.350;2023-04-09T10:15:55;267.33;;;92.33;;
14066;SDS011;7108;42.684;23.350;2023-04-09T10:18:21;273.53;;;91.17;;
14066;SDS011;7108;42.684;23.350;2023-04-09T10:20:53;268.67;;;91.57;;
14066;SDS011;7108;42.684;23.350;2023-04-09T10:23:44;278.93;;;95.63;;
14066;SDS011;7108;42.684;23.350;2023-04-09T10:26:13;280.50;;;93.10;;
14066;SDS011;7108;42.684;23.350;2023-04-09T10:28:38;245.60;;;88.60;;
14066;SDS011;7108;42.684;23.350;2023-04-09T10:31:05;231.47;;;83.30;;
14066;SDS011;7108;42.684;23.350;2023-04-09T10:33:31;271.07;;;89.87;;
14066;SDS011;7108;42.684;23.350;2023-04-09T10:36:06;252.40;;;85.33;;
14066;SDS011;7108;42.684;23.350;2023-04-09T10:38:44;261.80;;;88.27;;
14066;SDS011;7108;42.684;23.350;2023-04-09T10:43:41;271.83;;;91.23;;
14066;SDS011;7108;42.684;23.350;2023-04-09T10:46:24;243.70;;;85.07;;
14066;SDS011;7108;42.684;23.350;2023-04-09T10:52:03;265.70;;;88.77;;
14066;SDS011;7108;42.684;23.350;2023-04-09T10:54:36;255.93;;;85.03;;
14066;SDS011;7108;42.684;23.350;2023-04-09T10:57:12;248.17;;;85.47;;
14066;SDS011;7108;42.684;23.350;2023-04-09T10:59:40;247.73;;;87.37;;
14066;SDS011;7108;42.684;23.350;2023-04-09T11:07:42;260.07;;;85.97;;
14066;SDS011;7108;42.684;23.350;2023-04-09T11:10:11;265.27;;;86.23;;
14066;SDS011;7108;42.684;23.350;2023-04-09T11:12:36;250.03;;;83.47;;
14066;SDS011;7108;42.684;23.350;2023-04-09T11:15:02;245.97;;;84.87;;
14066;SDS011;7108;42.684;23.350;2023-04-09T11:17:27;251.90;;;85.37;;
14066;SDS011;7108;42.684;23.350;2023-04-09T11:19:54;275.77;;;90.40;;
14066;SDS011;7108;42.684;23.350;2023-04-09T11:22:19;271.07;;;87.77;;
14066;SDS011;7108;42.684;23.350;2023-04-09T11:24:45;259.40;;;84.17;;
14066;SDS011;7108;42.684;23.350;2023-04-09T11:27:11;238.37;;;85.93;;
14066;SDS011;7108;42.684;23.350;2023-04-09T11:29:37;256.53;;;86.90;;
14066;SDS011;7108;42.684;23.350;2023-04-09T11:32:03;236.00;;;82.67;;
14066;SDS011;7108;42.684;23.350;2023-04-09T11:34:29;256.90;;;83.83;;
14066;SDS011;7108;42.684;23.350;2023-04-09T11:36:55;252.80;;;83.27;;
14066;SDS011;7108;42.684;23.350;2023-04-09T11:39:23;271.27;;;86.73;;
14066;SDS011;7108;42.684;23.350;2023-04-09T11:41:48;251.90;;;82.33;;
14066;SDS011;7108;42.684;23.350;2023-04-09T11:44:14;277.30;;;87.03;;
14066;SDS011;7108;42.684;23.350;2023-04-09T11:46:39;247.43;;;82.53;;
14066;SDS011;7108;42.684;23.350;2023-04-09T11:49:06;242.23;;;84.20;;
14066;SDS011;7108;42.684;23.350;2023-04-09T11:51:31;239.17;;;81.07;;
14066;SDS011;7108;42.684;23.350;2023-04-09T11:54:02;247.10;;;83.20;;
14066;SDS011;7108;42.684;23.350;2023-04-09T11:56:29;262.60;;;84.27;;
14066;SDS011;7108;42.684;23.350;2023-04-09T11:58:55;249.30;;;82.03;;
14066;SDS011;7108;42.684;23.350;2023-04-09T12:01:21;257.47;;;84.47;;
14066;SDS011;7108;42.684;23.350;2023-04-09T12:03:55;260.57;;;84.27;;
14066;SDS011;7108;42.684;23.350;2023-04-09T12:06:21;244.77;;;82.80;;
14066;SDS011;7108;42.684;23.350;2023-04-09T12:08:52;255.43;;;83.17;;
14066;SDS011;7108;42.684;23.350;2023-04-09T12:11:19;257.33;;;80.93;;
14066;SDS011;7108;42.684;23.350;2023-04-09T12:13:57;249.40;;;80.93;;
14066;SDS011;7108;42.684;23.350;2023-04-09T12:16:23;251.47;;;83.10;;
14066;SDS011;7108;42.684;23.350;2023-04-09T12:18:48;259.57;;;84.43;;
14066;SDS011;7108;42.684;23.350;2023-04-09T12:21:14;255.50;;;82.77;;
14066;SDS011;7108;42.684;23.350;2023-04-09T12:23:41;247.47;;;81.70;;
14066;SDS011;7108;42.684;23.350;2023-04-09T12:26:06;227.53;;;79.33;;
14066;SDS011;7108;42.684;23.350;2023-04-09T12:28:32;257.17;;;84.67;;
14066;SDS011;7108;42.684;23.350;2023-04-09T12:30:57;238.37;;;80.53;;
14066;SDS011;7108;42.684;23.350;2023-04-09T12:33:23;254.40;;;84.83;;
14066;SDS011;7108;42.684;23.350;2023-04-09T12:35:48;281.10;;;93.67;;
14066;SDS011;7108;42.684;23.350;2023-04-09T12:38:14;293.43;;;100.63;;
14066;SDS011;7108;42.684;23.350;2023-04-09T12:40:39;246.93;;;83.80;;
14066;SDS011;7108;42.684;23.350;2023-04-09T12:43:05;225.50;;;78.10;;
14066;SDS011;7108;42.684;23.350;2023-04-09T12:45:30;239.17;;;79.57;;
14066;SDS011;7108;42.684;23.350;2023-04-09T12:47:56;245.20;;;82.53;;
14066;SDS011;7108;42.684;23.350;2023-04-09T12:50:22;254.10;;;84.17;;
14066;SDS011;7108;42.684;23.350;2023-04-09T12:52:48;245.73;;;81.10;;
14066;SDS011;7108;42.684;23.350;2023-04-09T12:55:13;260.83;;;86.40;;
14066;SDS011;7108;42.684;23.350;2023-04-09T12:57:41;239.93;;;79.40;;
14066;SDS011;7108;42.684;23.350;2023-04-09T13:00:08;237.23;;;82.27;;
14066;SDS011;7108;42.684;23.350;2023-04-09T13:02:34;230.27;;;79.17;;
14066;SDS011;7108;42.684;23.350;2023-04-09T13:05:00;244.97;;;82.33;;
14066;SDS011;7108;42.684;23.350;2023-04-09T13:07:25;263.47;;;84.40;;
14066;SDS011;7108;42.684;23.350;2023-04-09T13:09:53;256.17;;;84.83;;
14066;SDS011;7108;42.684;23.350;2023-04-09T13:12:19;262.53;;;84.40;;
14066;SDS011;7108;42.684;23.350;2023-04-09T13:14:46;236.60;;;84.13;;
14066;SDS011;7108;42.684;23.350;2023-04-09T13:17:12;250.10;;;82.77;;
14066;SDS011;7108;42.684;23.350;2023-04-09T13:19:38;248.07;;;82.67;;
14066;SDS011;7108;42.684;23.350;2023-04-09T13:22:04;233.33;;;81.13;;
14066;SDS011;7108;42.684;23.350;2023-04-09T13:24:32;238.50;;;81.23;;
14066;SDS011;7108;42.684;23.350;2023-04-09T13:26:59;228.47;;;80.37;;
14066;SDS011;7108;42.684;23.350;2023-04-09T13:29:25;238.67;;;79.57;;
14066;SDS011;7108;42.684;23.350;2023-04-09T13:31:53;249.80;;;82.63;;
14066;SDS011;7108;42.684;23.350;2023-04-09T13:34:19;252.70;;;81.10;;
14066;SDS011;7108;42.684;23.350;2023-04-09T13:36:45;261.30;;;84.90;;
14066;SDS011;7108;42.684;23.350;2023-04-09T13:39:10;253.00;;;85.40;;
14066;SDS011;7108;42.684;23.350;2023-04-09T13:41:35;244.93;;;81.40;;
14066;SDS011;7108;42.684;23.350;2023-04-09T13:44:02;270.10;;;87.43;;
14066;SDS011;7108;42.684;23.350;2023-04-09T13:46:28;272.30;;;84.70;;
14066;SDS011;7108;42.684;23.350;2023-04-09T13:48:53;273.03;;;83.70;;
14066;SDS011;7108;42.684;23.350;2023-04-09T13:51:22;276.07;;;85.80;;
14066;SDS011;7108;42.684;23.350;2023-04-09T13:53:48;262.03;;;82.70;;
14066;SDS011;7108;42.684;23.350;2023-04-09T13:56:14;277.80;;;86.47;;
14066;SDS011;7108;42.684;23.350;2023-04-09T13:58:40;272.67;;;83.47;;
14066;SDS011;7108;42.684;23.350;2023-04-09T14:01:07;262.63;;;85.57;;
14066;SDS011;7108;42.684;23.350;2023-04-09T14:03:32;269.60;;;85.80;;
14066;SDS011;7108;42.684;23.350;2023-04-09T14:05:58;267.97;;;87.00;;
14066;SDS011;7108;42.684;23.350;2023-04-09T14:08:23;268.13;;;81.37;;
14066;SDS011;7108;42.684;23.350;2023-04-09T14:10:49;289.80;;;87.30;;
14066;SDS011;7108;42.684;23.350;2023-04-09T14:13:15;268.40;;;81.70;;
14066;SDS011;7108;42.684;23.350;2023-04-09T14:15:40;269.37;;;84.00;;
14066;SDS011;7108;42.684;23.350;2023-04-09T14:18:08;255.63;;;82.97;;
14066;SDS011;7108;42.684;23.350;2023-04-09T14:20:33;254.93;;;82.43;;
14066;SDS011;7108;42.684;23.350;2023-04-09T14:22:59;268.90;;;85.70;;
14066;SDS011;7108;42.684;23.350;2023-04-09T14:25:25;266.23;;;82.80;;
14066;SDS011;7108;42.684;23.350;2023-04-09T14:27:50;299.67;;;88.47;;
14066;SDS011;7108;42.684;23.350;2023-04-09T14:30:16;261.77;;;84.90;;
14066;SDS011;7108;42.684;23.350;2023-04-09T14:32:41;297.53;;;88.80;;